Time;durP1;ratioP1;P1;durP2;ratioP2;P2;SDS_P1;SDS_P2;PMS_P1;PMS_P2;Temp;Humidity;BMP_temperature;BMP_pressure;BME280_temperature;BME280_humidity;BME280_pressure;Samples;Min_cycle;Max_cycle;Signal;HPM_P1;HPM_P2
2022/03/17 00:01:59;;;;;;;38.97;16.60;;;;;;;10.36;100.00;101895.78;5227144;28;20033;-74
2022/03/17 00:04:31;;;;;;;45.65;20.02;;;;;;;10.32;100.00;101894.34;5226748;28;20028;-74
2022/03/17 00:07:02;;;;;;;38.53;18.45;;;;;;;10.34;100.00;101893.25;5226781;28;20033;-74
2022/03/17 00:09:32;;;;;;;42.97;18.67;;;;;;;10.36;100.00;101893.09;5226948;28;20021;-74
2022/03/17 00:12:03;;;;;;;44.88;18.15;;;;;;;10.41;100.00;101898.03;5227177;28;20108;-75
2022/03/17 00:14:34;;;;;;;35.10;17.75;;;;;;;10.46;100.00;101901.16;5226862;28;20071;-74
2022/03/17 00:17:04;;;;;;;46.72;20.05;;;;;;;10.46;100.00;101902.00;5225685;28;20025;-74
2022/03/17 00:19:36;;;;;;;39.42;19.17;;;;;;;10.49;100.00;101899.03;5226501;28;20033;-74
2022/03/17 00:22:08;;;;;;;39.13;18.92;;;;;;;10.52;100.00;101906.78;5226552;28;20016;-74
2022/03/17 00:24:39;;;;;;;42.05;19.77;;;;;;;10.57;100.00;101917.97;5226276;28;20075;-74
2022/03/17 00:27:10;;;;;;;39.75;18.88;;;;;;;10.63;100.00;101906.66;5226744;28;20029;-74
2022/03/17 00:29:40;;;;;;;47.28;19.70;;;;;;;10.72;100.00;101904.97;5226339;28;20017;-74
2022/03/17 00:32:11;;;;;;;41.88;20.10;;;;;;;10.80;100.00;101906.97;5226261;28;20451;-74
2022/03/17 00:37:30;;;;;;;40.60;19.42;;;;;;;10.96;100.00;101915.28;5225076;28;20044;-74
2022/03/17 00:40:02;;;;;;;44.33;20.02;;;;;;;10.97;100.00;101913.44;5226832;28;20056;-75
2022/03/17 00:42:33;;;;;;;44.30;19.80;;;;;;;10.99;100.00;101914.97;5225869;28;20497;-74
2022/03/17 00:45:04;;;;;;;44.03;21.20;;;;;;;11.02;100.00;101921.91;5226293;28;20027;-74
2022/03/17 00:47:34;;;;;;;47.28;21.70;;;;;;;11.05;100.00;101922.47;5225048;28;20025;-75
2022/03/17 00:50:08;;;;;;;42.22;20.33;;;;;;;11.07;100.00;101920.50;5226074;28;20032;-75
2022/03/17 00:52:38;;;;;;;37.25;18.63;;;;;;;11.06;100.00;101920.63;5226109;28;20477;-74
2022/03/17 00:55:09;;;;;;;47.22;20.45;;;;;;;11.07;100.00;101919.66;5225595;28;20029;-75
2022/03/17 00:57:40;;;;;;;52.63;20.98;;;;;;;11.03;100.00;101919.06;5225990;28;20503;-74
2022/03/17 01:00:14;;;;;;;43.85;20.80;;;;;;;11.06;100.00;101924.16;5225686;28;20024;-74
2022/03/17 01:02:47;;;;;;;51.00;22.43;;;;;;;11.08;100.00;101935.59;5212881;28;20028;-74
2022/03/17 01:05:18;;;;;;;42.08;21.10;;;;;;;11.12;100.00;101937.03;5224259;28;20164;-74
2022/03/17 01:07:52;;;;;;;52.10;21.45;;;;;;;11.11;100.00;101943.38;5226051;28;20108;-74
2022/03/17 01:10:23;;;;;;;48.08;20.85;;;;;;;11.13;100.00;101944.06;5224605;28;20408;-74
2022/03/17 01:12:55;;;;;;;53.00;22.23;;;;;;;11.15;100.00;101947.50;5225789;28;20025;-74
2022/03/17 01:15:25;;;;;;;46.88;20.77;;;;;;;11.18;100.00;101954.41;5225734;28;20074;-75
2022/03/17 01:17:56;;;;;;;55.97;23.40;;;;;;;11.25;100.00;101955.53;5225597;28;20552;-74
2022/03/17 01:20:26;;;;;;;51.72;24.70;;;;;;;11.30;100.00;101950.56;5225555;28;20025;-74
2022/03/17 01:22:57;;;;;;;45.28;23.05;;;;;;;11.35;100.00;101951.00;5224271;28;20021;-74
2022/03/17 01:25:27;;;;;;;59.95;23.90;;;;;;;11.41;100.00;101949.56;5210736;28;20033;-74
2022/03/17 01:27:57;;;;;;;53.97;22.52;;;;;;;11.47;100.00;101948.13;5225047;28;20024;-74
2022/03/17 01:30:28;;;;;;;52.00;23.88;;;;;;;11.50;100.00;101946.00;5225077;28;20020;-74
2022/03/17 01:32:58;;;;;;;54.40;23.88;;;;;;;11.63;100.00;101945.66;5225327;28;20044;-74
2022/03/17 01:35:29;;;;;;;56.25;25.17;;;;;;;11.64;100.00;101950.91;5223419;28;20064;-74
2022/03/17 01:37:59;;;;;;;57.40;25.27;;;;;;;11.70;100.00;101945.91;5225305;28;20028;-75
2022/03/17 01:40:30;;;;;;;54.95;25.45;;;;;;;11.74;100.00;101944.63;5225137;28;20059;-74
2022/03/17 01:43:00;;;;;;;49.92;24.17;;;;;;;11.70;100.00;101957.56;5225290;28;20083;-74
2022/03/17 01:45:31;;;;;;;57.08;24.55;;;;;;;11.69;100.00;101958.53;5225174;28;20115;-74
2022/03/17 01:48:02;;;;;;;54.88;25.08;;;;;;;11.75;100.00;101959.81;5225123;28;20378;-73
2022/03/17 01:50:32;;;;;;;54.55;23.10;;;;;;;11.77;100.00;101972.09;5223681;28;20051;-73
2022/03/17 01:53:03;;;;;;;48.38;21.38;;;;;;;11.71;100.00;101979.91;5225248;28;20028;-73
2022/03/17 01:55:33;;;;;;;43.03;22.15;;;;;;;11.74;100.00;101993.03;5224202;28;20056;-73
2022/03/17 01:58:04;;;;;;;41.47;19.52;;;;;;;11.75;100.00;101994.75;5225033;28;20020;-74
2022/03/17 02:00:35;;;;;;;33.13;17.77;;;;;;;11.61;100.00;101999.59;5221634;28;20024;-74
2022/03/17 02:03:06;;;;;;;33.17;16.83;;;;;;;11.62;100.00;102003.97;5214708;28;20036;-74
2022/03/17 02:05:38;;;;;;;32.40;16.23;;;;;;;11.44;100.00;102010.22;5224753;28;20378;-73
2022/03/17 02:08:10;;;;;;;38.90;17.23;;;;;;;11.23;100.00;102026.50;5224921;28;20025;-74
2022/03/17 02:13:42;;;;;;;32.75;17.08;;;;;;;10.96;100.00;102044.16;5224988;28;20036;-73
2022/03/17 02:16:20;;;;;;;32.03;17.38;;;;;;;10.73;100.00;102050.75;5224763;28;20024;-73
2022/03/17 02:18:51;;;;;;;32.17;18.10;;;;;;;10.41;100.00;102053.63;5224732;28;20499;-73
2022/03/17 02:21:21;;;;;;;35.83;19.30;;;;;;;10.26;100.00;102064.72;5224581;28;20025;-73
2022/03/17 02:26:41;;;;;;;38.45;20.00;;;;;;;9.93;100.00;102076.50;5224763;28;20489;-73
2022/03/17 02:29:12;;;;;;;50.42;24.17;;;;;;;9.76;100.00;102088.69;5224715;28;20036;-74
2022/03/17 02:31:42;;;;;;;49.63;25.92;;;;;;;9.63;100.00;102092.53;5224005;28;20028;-73
2022/03/17 02:34:16;;;;;;;60.90;26.85;;;;;;;9.37;100.00;102119.69;5224676;28;20029;-73
2022/03/17 02:36:48;;;;;;;46.10;20.70;;;;;;;9.07;100.00;102112.34;5224506;28;20115;-73
2022/03/17 02:39:21;;;;;;;49.88;21.58;;;;;;;8.92;100.00;102129.66;5224358;28;20485;-73
2022/03/17 02:41:52;;;;;;;43.42;19.58;;;;;;;8.85;100.00;102141.84;5228567;28;20037;-73
2022/03/17 02:44:22;;;;;;;50.17;20.70;;;;;;;8.77;100.00;102148.63;5228538;28;20423;-73
2022/03/17 02:46:53;;;;;;;46.03;20.63;;;;;;;8.71;100.00;102151.81;5228846;28;20025;-73
2022/03/17 02:49:24;;;;;;;44.25;20.38;;;;;;;8.66;100.00;102158.50;5227138;28;20067;-73
2022/03/17 02:51:55;;;;;;;47.47;20.27;;;;;;;8.60;100.00;102156.31;5228774;28;20111;-73
2022/03/17 02:54:27;;;;;;;48.33;20.33;;;;;;;8.54;100.00;102161.19;5229237;28;20021;-73
2022/03/17 02:56:58;;;;;;;39.33;18.83;;;;;;;8.52;100.00;102165.78;5229428;28;20448;-73
2022/03/17 02:59:29;;;;;;;43.42;17.73;;;;;;;8.56;100.00;102163.72;5229046;28;20042;-73
2022/03/17 03:02:04;;;;;;;34.85;16.45;;;;;;;8.54;100.00;102169.22;5229150;28;20088;-73
2022/03/17 03:04:35;;;;;;;34.38;16.30;;;;;;;8.57;100.00;102184.16;5230516;28;20021;-74
2022/03/17 03:07:06;;;;;;;33.90;15.25;;;;;;;8.60;100.00;102180.41;5211516;28;20048;-74
2022/03/17 03:09:37;;;;;;;33.60;15.32;;;;;;;8.58;100.00;102185.84;5227474;28;20159;-73
2022/03/17 03:12:08;;;;;;;31.05;15.55;;;;;;;8.59;100.00;102189.41;5228474;28;20438;-74
2022/03/17 03:14:39;;;;;;;33.05;15.35;;;;;;;8.57;100.00;102200.19;5227915;28;20151;-73
2022/03/17 03:17:09;;;;;;;30.98;13.88;;;;;;;8.53;100.00;102202.28;5226837;28;20107;-73
2022/03/17 03:19:40;;;;;;;32.42;15.27;;;;;;;8.57;100.00;102217.09;5210324;28;20075;-73
2022/03/17 03:22:11;;;;;;;31.15;14.00;;;;;;;8.54;100.00;102227.22;5227903;28;20021;-73
2022/03/17 03:24:41;;;;;;;30.52;13.45;;;;;;;8.51;100.00;102220.25;5227400;28;20527;-73
2022/03/17 03:27:12;;;;;;;31.50;13.45;;;;;;;8.50;100.00;102231.94;5227730;28;20487;-73
2022/03/17 03:29:43;;;;;;;30.30;12.70;;;;;;;8.49;100.00;102226.72;5227599;28;20029;-73
2022/03/17 03:32:13;;;;;;;34.70;13.52;;;;;;;8.45;100.00;102234.13;5227960;28;20401;-73
2022/03/17 03:34:44;;;;;;;31.63;12.93;;;;;;;8.46;100.00;102240.31;5227831;28;20056;-73
2022/03/17 03:37:24;;;;;;;30.63;12.75;;;;;;;8.51;100.00;102248.84;5227655;28;20021;-73
2022/03/17 03:39:57;;;;;;;27.52;13.30;;;;;;;8.55;100.00;102267.22;5227379;28;20028;-73
2022/03/17 03:42:27;;;;;;;31.63;13.40;;;;;;;8.55;100.00;102266.34;5227739;28;20485;-73
2022/03/17 03:44:58;;;;;;;27.70;13.05;;;;;;;8.57;100.00;102262.56;5230696;28;20060;-72
2022/03/17 03:47:28;;;;;;;26.67;13.57;;;;;;;8.57;100.00;102288.47;5233341;28;20029;-73
2022/03/17 03:49:59;;;;;;;25.70;13.00;;;;;;;8.57;100.00;102291.16;5230663;28;20021;-73
2022/03/17 03:52:30;;;;;;;30.65;13.88;;;;;;;8.53;100.00;102298.59;5227272;28;20104;-73
2022/03/17 03:55:00;;;;;;;30.20;14.20;;;;;;;8.52;100.00;102302.19;5227081;28;20029;-73
2022/03/17 03:57:31;;;;;;;34.38;13.93;;;;;;;8.55;100.00;102311.84;5227639;28;20036;-73
2022/03/17 04:00:19;;;;;;;29.75;14.52;;;;;;;8.51;100.00;102302.31;5226894;28;20479;-73
2022/03/17 04:02:51;;;;;;;32.80;14.45;;;;;;;8.53;100.00;102316.44;5214870;28;20055;-73
2022/03/17 04:08:10;;;;;;;37.50;15.02;;;;;;;8.44;100.00;102334.06;5226954;28;20029;-73
2022/03/17 04:10:40;;;;;;;36.00;15.23;;;;;;;8.45;100.00;102333.06;5226657;28;20043;-73
2022/03/17 04:13:11;;;;;;;35.13;14.65;;;;;;;8.42;100.00;102341.31;5226923;28;20462;-73
2022/03/17 04:15:41;;;;;;;31.38;14.95;;;;;;;8.40;100.00;102340.59;5226769;28;20445;-73
2022/03/17 04:18:12;;;;;;;32.47;14.32;;;;;;;8.40;100.00;102350.44;5225914;28;20370;-74
2022/03/17 04:20:42;;;;;;;38.58;16.60;;;;;;;8.38;100.00;102355.03;5226894;28;20028;-73
2022/03/17 04:23:13;;;;;;;32.50;14.93;;;;;;;8.38;100.00;102358.56;5226475;28;20033;-73
2022/03/17 04:25:43;;;;;;;38.97;14.70;;;;;;;8.43;100.00;102366.25;5226738;28;20082;-73
2022/03/17 04:28:14;;;;;;;33.45;13.75;;;;;;;8.44;100.00;102371.50;5225512;28;20031;-73
2022/03/17 04:30:45;;;;;;;29.77;13.80;;;;;;;8.43;100.00;102379.59;5226308;28;20411;-73
2022/03/17 04:33:15;;;;;;;32.05;12.55;;;;;;;8.45;100.00;102385.72;5226564;28;20048;-73
2022/03/17 04:35:45;;;;;;;25.17;12.52;;;;;;;8.43;100.00;102398.31;5225919;28;20493;-73
2022/03/17 04:38:16;;;;;;;30.95;12.93;;;;;;;8.39;100.00;102397.72;5226366;28;20013;-73
2022/03/17 04:40:49;;;;;;;27.30;13.38;;;;;;;8.38;100.00;102417.38;5226495;28;20041;-73
2022/03/17 04:43:20;;;;;;;26.13;12.57;;;;;;;8.39;100.00;102415.59;5211866;28;20447;-73
2022/03/17 04:45:51;;;;;;;26.58;12.20;;;;;;;8.42;100.00;102420.69;5225985;28;20025;-73
2022/03/17 04:48:21;;;;;;;27.38;13.05;;;;;;;8.41;100.00;102430.53;5226339;28;20051;-73
2022/03/17 04:50:52;;;;;;;29.80;12.02;;;;;;;8.37;100.00;102438.91;5225998;28;20542;-73
2022/03/17 04:56:16;;;;;;;27.00;12.25;;;;;;;8.36;100.00;102448.75;5225904;28;20544;-73
2022/03/17 04:58:47;;;;;;;24.75;13.40;;;;;;;8.30;100.00;102460.72;5224491;28;20047;-73
2022/03/17 05:01:17;;;;;;;20.98;11.40;;;;;;;8.29;100.00;102459.03;5225678;28;20025;-73
2022/03/17 05:03:48;;;;;;;24.35;11.73;;;;;;;8.30;100.00;102462.53;5223839;28;20029;-73
2022/03/17 05:06:19;;;;;;;25.77;11.23;;;;;;;8.29;100.00;102471.53;5225039;28;20039;-75
2022/03/17 05:08:49;;;;;;;25.70;10.35;;;;;;;8.28;100.00;102480.50;5225644;28;20071;-73
2022/03/17 05:11:20;;;;;;;29.60;11.73;;;;;;;8.27;100.00;102492.16;5225330;28;20025;-73
2022/03/17 05:13:51;;;;;;;21.13;11.73;;;;;;;8.25;100.00;102497.63;5225561;28;20025;-73
2022/03/17 05:16:22;;;;;;;26.55;10.85;;;;;;;8.19;100.00;102498.09;5224452;28;20037;-73
2022/03/17 05:18:52;;;;;;;24.27;11.23;;;;;;;8.26;100.00;102506.50;5225619;28;20066;-73
2022/03/17 05:21:23;;;;;;;22.65;10.40;;;;;;;8.22;100.00;102513.88;5225649;28;20063;-73
2022/03/17 05:23:53;;;;;;;19.02;9.73;;;;;;;8.18;100.00;102524.91;5225128;28;20112;-73
2022/03/17 05:26:24;;;;;;;23.70;10.35;;;;;;;8.19;100.00;102523.97;5225229;28;20479;-73
2022/03/17 05:28:54;;;;;;;31.48;15.77;;;;;;;8.18;100.00;102533.81;5225297;28;20020;-72
2022/03/17 05:31:24;;;;;;;22.65;9.65;;;;;;;8.17;100.00;102539.25;5224985;28;20301;-73
2022/03/17 05:33:55;;;;;;;23.48;11.68;;;;;;;8.16;100.00;102546.41;5225197;28;20031;-73
2022/03/17 05:36:25;;;;;;;23.33;9.98;;;;;;;8.14;100.00;102551.03;5224715;28;20036;-73
2022/03/17 05:38:57;;;;;;;22.70;9.07;;;;;;;8.13;100.00;102551.97;5225396;28;20105;-73
2022/03/17 05:41:27;;;;;;;19.15;9.88;;;;;;;8.12;100.00;102554.75;5224933;28;20025;-73
2022/03/17 05:43:58;;;;;;;19.67;9.45;;;;;;;8.11;100.00;102555.72;5225760;28;20027;-73
2022/03/17 05:46:28;;;;;;;21.75;8.57;;;;;;;8.10;100.00;102557.56;5225121;28;20385;-73
2022/03/17 05:49:00;;;;;;;19.27;9.13;;;;;;;8.10;100.00;102554.03;5224645;28;20068;-73
2022/03/17 05:51:30;;;;;;;22.48;8.98;;;;;;;8.11;100.00;102571.78;5224982;28;20024;-73
2022/03/17 05:54:01;;;;;;;21.27;9.23;;;;;;;8.07;100.00;102570.28;5223906;28;20029;-73
2022/03/17 05:56:31;;;;;;;23.92;9.20;;;;;;;8.10;100.00;102580.75;5224783;28;20098;-73
2022/03/17 05:59:02;;;;;;;16.67;9.20;;;;;;;8.08;100.00;102585.34;5224701;28;20377;-74
2022/03/17 06:01:32;;;;;;;18.48;8.63;;;;;;;8.08;100.00;102582.66;5213127;28;20560;-74
2022/03/17 06:04:03;;;;;;;18.17;7.85;;;;;;;8.06;100.00;102596.16;5220788;28;20082;-72
2022/03/17 06:06:33;;;;;;;18.27;8.38;;;;;;;8.04;100.00;102604.28;5222709;28;20021;-73
2022/03/17 06:09:03;;;;;;;20.58;8.13;;;;;;;8.01;100.00;102608.97;5223929;28;20535;-73
2022/03/17 06:11:34;;;;;;;22.35;8.32;;;;;;;7.99;100.00;102606.44;5223511;28;20028;-73
2022/03/17 06:14:06;;;;;;;17.95;8.57;;;;;;;8.02;100.00;102610.69;5222500;28;20068;-74
2022/03/17 06:16:37;;;;;;;18.88;8.70;;;;;;;8.00;100.00;102623.31;5222596;28;20082;-74
2022/03/17 06:19:08;;;;;;;24.23;9.77;;;;;;;7.97;100.00;102624.38;5224552;28;20017;-73
2022/03/17 06:21:38;;;;;;;19.13;9.65;;;;;;;7.96;100.00;102633.34;5223792;28;20048;-74
2022/03/17 06:24:09;;;;;;;20.15;8.82;;;;;;;7.99;100.00;102632.28;5223298;28;20510;-74
2022/03/17 06:26:39;;;;;;;20.13;9.35;;;;;;;7.97;100.00;102637.72;5223057;28;20021;-73
2022/03/17 06:29:10;;;;;;;21.52;9.50;;;;;;;7.94;100.00;102650.47;5224181;28;20105;-75
2022/03/17 06:31:40;;;;;;;21.70;9.35;;;;;;;7.91;100.00;102648.00;5223602;28;20496;-74
2022/03/17 06:34:12;;;;;;;20.60;9.98;;;;;;;7.90;100.00;102655.16;5222583;28;20025;-74
2022/03/17 06:36:42;;;;;;;18.55;9.52;;;;;;;7.95;100.00;102661.03;5223382;28;20056;-73
2022/03/17 06:39:12;;;;;;;20.80;10.45;;;;;;;7.95;100.00;102671.72;5224138;28;20096;-73
2022/03/17 06:41:43;;;;;;;25.08;10.18;;;;;;;7.98;100.00;102670.66;5208999;28;20025;-72
2022/03/17 06:44:13;;;;;;;21.65;10.02;;;;;;;7.92;100.00;102681.78;5223331;28;20021;-74
2022/03/17 06:46:44;;;;;;;20.65;10.13;;;;;;;7.98;100.00;102692.03;5222585;28;20408;-74
2022/03/17 06:49:14;;;;;;;24.63;10.43;;;;;;;7.95;100.00;102690.44;5223140;28;20151;-73
2022/03/17 06:51:45;;;;;;;25.33;10.45;;;;;;;7.94;100.00;102687.88;5222411;28;20021;-73
2022/03/17 06:54:15;;;;;;;23.92;9.73;;;;;;;8.00;100.00;102704.34;5223259;28;20508;-73
2022/03/17 06:56:46;;;;;;;21.40;10.15;;;;;;;7.93;100.00;102703.06;5222444;28;20025;-73
2022/03/17 06:59:16;;;;;;;26.15;10.82;;;;;;;7.95;100.00;102717.16;5223432;28;20104;-73
2022/03/17 07:01:47;;;;;;;28.25;10.65;;;;;;;7.95;100.00;102727.84;5210530;28;20109;-73
2022/03/17 07:04:17;;;;;;;35.97;11.82;;;;;;;7.95;100.00;102727.84;5222484;28;20029;-73
2022/03/17 07:06:48;;;;;;;20.90;9.90;;;;;;;7.98;100.00;102718.75;5222194;28;20064;-73
2022/03/17 07:09:18;;;;;;;26.23;10.95;;;;;;;7.99;100.00;102740.06;5223382;28;20021;-73
2022/03/17 07:11:49;;;;;;;24.73;10.65;;;;;;;7.96;100.00;102748.28;5223331;28;20059;-73
2022/03/17 07:14:19;;;;;;;32.10;11.13;;;;;;;7.98;100.00;102753.50;5222597;28;20029;-73
2022/03/17 07:16:49;;;;;;;26.23;10.30;;;;;;;7.96;100.00;102761.63;5222088;28;20493;-73
2022/03/17 07:19:20;;;;;;;22.88;10.43;;;;;;;7.96;100.00;102761.63;5223314;28;20501;-74
2022/03/17 07:21:53;;;;;;;17.02;7.30;;;;;;;7.81;100.00;102765.34;5223321;28;20032;-73
2022/03/17 07:24:24;;;;;;;16.83;7.30;;;;;;;7.68;100.00;102772.44;5222789;28;20082;-74
2022/03/17 07:26:54;;;;;;;14.52;6.50;;;;;;;7.56;100.00;102760.75;5225281;28;20423;-74
2022/03/17 07:29:28;;;;;;;14.95;5.10;;;;;;;7.44;100.00;102781.09;5225640;28;20120;-75
2022/03/17 07:31:59;;;;;;;12.88;5.57;;;;;;;7.31;100.00;102788.16;5214950;28;20017;-76
2022/03/17 07:34:29;;;;;;;11.43;4.20;;;;;;;7.25;100.00;102793.91;5226833;28;20082;-75
2022/03/17 07:36:59;;;;;;;14.13;4.90;;;;;;;7.25;100.00;102796.56;5226974;28;20412;-75
2022/03/17 07:39:30;;;;;;;11.02;4.45;;;;;;;7.32;100.00;102813.06;5226618;28;20499;-75
2022/03/17 07:42:01;;;;;;;14.07;5.07;;;;;;;7.38;100.00;102813.53;5226841;28;20029;-75
2022/03/17 07:44:31;;;;;;;12.80;5.78;;;;;;;7.45;100.00;102822.88;5226324;28;20388;-74
2022/03/17 07:47:02;;;;;;;16.35;5.35;;;;;;;7.49;100.00;102836.91;5225775;28;20043;-75
2022/03/17 07:49:32;;;;;;;9.70;4.50;;;;;;;7.51;100.00;102835.81;5226043;28;20493;-75
2022/03/17 07:52:03;;;;;;;9.45;5.30;;;;;;;7.57;100.00;102839.91;5226540;28;20135;-73
2022/03/17 07:54:35;;;;;;;15.88;7.03;;;;;;;7.61;100.00;102838.75;5225959;28;20518;-76
2022/03/17 07:57:06;;;;;;;12.90;4.85;;;;;;;7.66;100.00;102849.16;5226355;28;20048;-75
2022/03/17 07:59:38;;;;;;;12.43;4.90;;;;;;;7.71;100.00;102853.25;5226267;28;20021;-76
2022/03/17 08:02:08;;;;;;;8.75;4.35;;;;;;;7.73;100.00;102859.38;5211623;28;20033;-75
2022/03/17 08:04:40;;;;;;;9.80;4.38;;;;;;;7.76;100.00;102863.63;5224746;28;20025;-75
2022/03/17 08:07:10;;;;;;;10.30;3.70;;;;;;;7.87;100.00;102877.16;5226223;28;20481;-75
2022/03/17 08:09:41;;;;;;;15.02;3.58;;;;;;;7.95;100.00;102877.53;5226239;28;20057;-73
2022/03/17 08:12:12;;;;;;;10.07;3.58;;;;;;;8.07;100.00;102881.22;5226422;28;20036;-77
2022/03/17 08:14:42;;;;;;;7.75;3.47;;;;;;;8.11;100.00;102887.22;5224482;28;20044;-74
2022/03/17 08:17:13;;;;;;;13.13;4.25;;;;;;;8.12;100.00;102886.25;5226331;28;20021;-76
2022/03/17 08:19:44;;;;;;;6.90;3.55;;;;;;;8.14;100.00;102892.38;5217789;28;20018;-74
2022/03/17 08:22:14;;;;;;;7.35;3.10;;;;;;;8.18;100.00;102885.84;5214855;28;20163;-74
2022/03/17 08:24:44;;;;;;;14.25;3.22;;;;;;;8.12;100.00;102892.47;5222729;28;20025;-74
2022/03/17 08:27:15;;;;;;;5.53;2.58;;;;;;;8.13;100.00;102902.19;5224159;28;20029;-75
2022/03/17 08:29:48;;;;;;;5.90;2.30;;;;;;;8.15;100.00;102900.28;5223076;28;20068;-74
2022/03/17 08:32:18;;;;;;;14.00;2.70;;;;;;;8.15;100.00;102904.78;5224696;28;20033;-74
2022/03/17 08:34:49;;;;;;;4.38;2.22;;;;;;;8.14;100.00;102909.28;5223670;28;20031;-76
2022/03/17 08:37:19;;;;;;;8.80;2.38;;;;;;;8.16;100.00;102912.69;5223705;28;20138;-75
2022/03/17 08:39:49;;;;;;;4.80;2.05;;;;;;;8.18;100.00;102916.16;5222113;28;20436;-75
2022/03/17 08:42:20;;;;;;;7.63;2.42;;;;;;;8.17;100.00;102921.56;5223077;28;20029;-75
2022/03/17 08:44:50;;;;;;;3.90;1.83;;;;;;;8.19;100.00;102922.34;5223631;28;20043;-74
2022/03/17 08:50:10;;;;;;;9.68;2.22;;;;;;;8.19;100.00;102943.75;5223488;28;20159;-74
2022/03/17 08:52:40;;;;;;;6.22;1.75;;;;;;;8.14;100.00;102940.50;5224224;28;20103;-75
2022/03/17 08:55:11;;;;;;;5.82;1.80;;;;;;;8.12;100.00;102940.59;5223500;28;20498;-74
2022/03/17 08:57:41;;;;;;;5.35;1.90;;;;;;;8.18;100.00;102947.34;5223084;28;20074;-75
2022/03/17 09:00:12;;;;;;;9.57;2.30;;;;;;;8.23;100.00;102955.91;5223653;28;20021;-75
2022/03/17 09:02:44;;;;;;;9.02;1.80;;;;;;;8.36;100.00;102972.94;5209239;28;20036;-73
2022/03/17 09:05:15;;;;;;;3.85;1.73;;;;;;;8.40;100.00;102966.44;5223200;28;20025;-73
2022/03/17 09:07:46;;;;;;;8.35;2.10;;;;;;;8.48;100.00;102965.91;5223873;28;20480;-74
2022/03/17 09:10:16;;;;;;;9.27;1.73;;;;;;;8.50;100.00;102977.38;5223460;28;20059;-75
2022/03/17 09:12:47;;;;;;;10.05;2.17;;;;;;;8.52;100.00;102984.34;5223823;28;20073;-74
2022/03/17 09:15:17;;;;;;;8.55;1.55;;;;;;;8.57;100.00;102992.91;5221567;28;20028;-73
2022/03/17 09:17:48;;;;;;;11.50;1.85;;;;;;;8.70;100.00;102992.13;5222702;28;20119;-73
2022/03/17 09:20:18;;;;;;;8.07;1.75;;;;;;;8.75;100.00;102998.03;5221936;28;20032;-73
2022/03/17 09:22:49;;;;;;;12.35;2.17;;;;;;;8.79;100.00;102995.06;5223504;28;20025;-73
2022/03/17 09:28:05;;;;;;;6.32;1.95;;;;;;;8.82;100.00;103007.34;5223276;28;20028;-73
2022/03/17 09:30:36;;;;;;;8.25;1.92;;;;;;;8.87;100.00;103013.25;5222024;28;20024;-73
2022/03/17 09:33:07;;;;;;;14.07;3.95;;;;;;;8.85;100.00;103017.88;5223071;28;20228;-73
2022/03/17 09:35:38;;;;;;;4.55;2.00;;;;;;;8.81;100.00;103016.34;5222941;28;20031;-74
2022/03/17 09:38:09;;;;;;;7.90;2.58;;;;;;;8.79;100.00;103024.50;5221509;28;20417;-73
2022/03/17 09:40:40;;;;;;;5.82;2.88;;;;;;;8.87;100.00;103031.13;5223239;28;20027;-74
2022/03/17 09:45:59;;;;;;;3.53;1.75;;;;;;;8.80;100.00;103030.69;5222956;28;20029;-73
2022/03/17 09:48:30;;;;;;;10.18;2.80;;;;;;;8.81;100.00;103029.72;5223037;28;20021;-73
2022/03/17 09:51:00;;;;;;;7.05;2.85;;;;;;;8.76;100.00;103034.53;5223130;28;20075;-73
2022/03/17 09:53:31;;;;;;;14.52;3.15;;;;;;;8.83;100.00;103035.81;5224093;28;20029;-73
2022/03/17 09:56:02;;;;;;;7.38;2.30;;;;;;;8.85;100.00;103039.28;5229574;28;20055;-72
2022/03/17 09:58:32;;;;;;;5.70;2.20;;;;;;;8.82;100.00;103039.47;5200689;28;20025;-72
2022/03/17 10:01:05;;;;;;;8.68;2.88;;;;;;;8.81;100.00;103053.81;5212314;28;20033;-72
2022/03/17 10:03:37;;;;;;;10.48;2.53;;;;;;;8.75;100.00;103048.88;5213213;28;20401;-73
2022/03/17 10:06:10;;;;;;;7.18;2.85;;;;;;;8.79;100.00;103055.75;5221318;28;20474;-74
2022/03/17 10:08:42;;;;;;;8.85;3.03;;;;;;;8.91;100.00;103056.75;5222475;28;20053;-74
2022/03/17 10:11:16;;;;;;;13.93;3.22;;;;;;;9.09;100.00;103058.22;5222056;28;20051;-74
2022/03/17 10:13:47;;;;;;;7.40;3.17;;;;;;;9.31;100.00;103063.81;5222391;28;20021;-74
2022/03/17 10:16:20;;;;;;;4.25;2.83;;;;;;;9.38;100.00;103063.41;5222199;28;20029;-74
2022/03/17 10:18:55;;;;;;;5.40;2.92;;;;;;;9.31;100.00;103063.81;5222648;28;20458;-74
2022/03/17 10:21:28;;;;;;;9.98;3.03;;;;;;;9.32;100.00;103070.88;5222177;28;20039;-74
2022/03/17 10:24:02;;;;;;;9.75;3.58;;;;;;;9.38;100.00;103074.13;5222202;28;20039;-74
2022/03/17 10:26:36;;;;;;;8.07;3.47;;;;;;;9.33;100.00;103083.31;5222238;28;20053;-74
2022/03/17 10:29:25;;;;;;;9.65;3.92;;;;;;;9.35;100.00;103091.28;5222545;28;20025;-75
2022/03/17 10:32:14;;;;;;;10.45;4.22;;;;;;;9.24;100.00;103096.50;5220691;28;20075;-74
2022/03/17 10:34:45;;;;;;;10.20;3.53;;;;;;;9.24;100.00;103104.53;5221908;28;20056;-74
2022/03/17 10:37:17;;;;;;;11.30;3.20;;;;;;;9.24;100.00;103110.75;5221936;28;20029;-74
2022/03/17 10:39:52;;;;;;;7.35;2.92;;;;;;;9.30;100.00;103110.31;5221966;28;20027;-74
2022/03/17 10:42:26;;;;;;;7.45;2.88;;;;;;;9.42;100.00;103113.13;5222178;28;20032;-75
2022/03/17 10:45:00;;;;;;;3.88;2.58;;;;;;;9.57;100.00;103115.63;5221864;28;20021;-74
2022/03/17 10:47:35;;;;;;;7.53;3.63;;;;;;;9.65;100.00;103125.84;5221990;28;20060;-75
2022/03/17 10:50:08;;;;;;;8.50;3.63;;;;;;;9.76;100.00;103122.41;5220830;28;20044;-74
2022/03/17 10:53:00;;;;;;;6.38;4.28;;;;;;;9.86;100.00;103116.31;5222169;28;20100;-74
2022/03/17 10:55:33;;;;;;;6.97;2.83;;;;;;;9.89;100.00;103120.63;5221627;28;20025;-75
2022/03/17 10:58:22;;;;;;;7.18;3.20;;;;;;;9.84;100.00;103123.63;5222100;28;20078;-74
2022/03/17 11:00:56;;;;;;;10.80;2.58;;;;;;;9.70;100.00;103129.06;5216698;28;20044;-75
2022/03/17 11:03:28;;;;;;;8.50;3.15;;;;;;;9.85;100.00;103133.38;5218226;28;20035;-74
2022/03/17 11:05:59;;;;;;;5.68;2.38;;;;;;;9.90;100.00;103130.38;5224984;28;20056;-74
2022/03/17 11:08:31;;;;;;;5.75;2.80;;;;;;;9.91;100.00;103139.28;5224835;28;20060;-75
2022/03/17 11:11:01;;;;;;;5.63;3.00;;;;;;;9.95;100.00;103138.09;5224694;28;20048;-74
2022/03/17 11:13:32;;;;;;;10.38;3.25;;;;;;;9.97;100.00;103144.19;5225843;28;20798;-74
2022/03/17 11:16:08;;;;;;;58.15;5.65;;;;;;;10.15;100.00;103147.44;5225065;28;20029;-75
2022/03/17 11:18:40;;;;;;;12.15;3.03;;;;;;;10.19;100.00;103155.16;5225754;28;20398;-74
2022/03/17 11:21:31;;;;;;;9.27;3.22;;;;;;;10.43;100.00;103152.59;5225515;28;20135;-74
2022/03/17 11:24:13;;;;;;;9.52;3.55;;;;;;;10.59;100.00;103152.34;5223967;28;20416;-74
2022/03/17 11:27:22;;;;;;;6.88;3.45;;;;;;;10.67;100.00;103154.50;5224965;28;20505;-74
2022/03/17 11:29:52;;;;;;;12.90;4.07;;;;;;;10.68;100.00;103158.88;5224142;28;20029;-74
2022/03/17 11:32:29;;;;;;;8.55;3.42;;;;;;;10.50;100.00;103166.44;5225032;28;20027;-74
2022/03/17 11:35:18;;;;;;;7.80;4.35;;;;;;;10.42;100.00;103158.94;5223707;28;20024;-75
2022/03/17 11:37:50;;;;;;;5.72;3.47;;;;;;;10.06;100.00;103157.84;5225010;28;20021;-75
2022/03/17 11:40:21;;;;;;;8.40;3.80;;;;;;;9.96;100.00;103167.47;5225174;28;20036;-75
2022/03/17 11:43:10;;;;;;;7.18;4.00;;;;;;;9.94;100.00;103172.09;5224773;28;20025;-75
2022/03/17 11:45:42;;;;;;;12.93;4.18;;;;;;;9.89;100.00;103171.56;5224801;28;20485;-76
2022/03/17 11:48:14;;;;;;;7.93;4.30;;;;;;;10.08;100.00;103176.50;5225207;28;20142;-75
2022/03/17 11:50:48;;;;;;;10.57;4.78;;;;;;;10.27;100.00;103189.53;5227028;28;20035;-74
2022/03/17 11:53:22;;;;;;;11.48;3.95;;;;;;;10.29;100.00;103180.41;5234349;28;20100;-74
2022/03/17 11:55:54;;;;;;;7.88;3.78;;;;;;;10.26;100.00;103183.31;5224755;28;20607;-74